sensor_id;sensor_type;location;lat;lon;timestamp;pressure;altitude;pressure_sealevel;temperature;humidity
36600;BME280;35385;55.668;37.508;2023-07-20T00:00:20;97975.47;;;13.78;100.00
36600;BME280;35385;55.668;37.508;2023-07-20T00:01:20;97973.59;;;13.79;100.00
36600;BME280;35385;55.668;37.508;2023-07-20T00:02:21;97975.28;;;13.80;100.00
36600;BME280;35385;55.668;37.508;2023-07-20T00:03:21;97977.88;;;13.73;100.00
36600;BME280;35385;55.668;37.508;2023-07-20T00:04:25;97978.03;;;13.72;100.00
36600;BME280;35385;55.668;37.508;2023-07-20T00:05:25;97967.72;;;13.69;100.00
36600;BME280;35385;55.668;37.508;2023-07-20T00:06:25;97979.28;;;13.69;100.00
36600;BME280;35385;55.668;37.508;2023-07-20T00:07:27;97977.59;;;13.68;100.00
36600;BME280;35385;55.668;37.508;2023-07-20T00:08:28;97981.97;;;13.69;100.00
36600;BME280;35385;55.668;37.508;2023-07-20T00:09:29;97977.22;;;13.71;100.00
36600;BME280;35385;55.668;37.508;2023-07-20T00:10:29;97970.81;;;13.72;100.00
36600;BME280;35385;55.668;37.508;2023-07-20T00:11:29;97966.94;;;13.75;100.00
36600;BME280;35385;55.668;37.508;2023-07-20T00:12:30;97968.97;;;13.73;100.00
36600;BME280;35385;55.668;37.508;2023-07-20T00:13:30;97974.34;;;13.73;100.00
36600;BME280;35385;55.668;37.508;2023-07-20T00:14:30;97983.88;;;13.75;100.00
36600;BME280;35385;55.668;37.508;2023-07-20T00:15:32;97982.56;;;13.71;100.00
36600;BME280;35385;55.668;37.508;2023-07-20T00:16:32;97979.28;;;13.69;100.00
36600;BME280;35385;55.668;37.508;2023-07-20T00:17:33;97978.25;;;13.70;100.00
36600;BME280;35385;55.668;37.508;2023-07-20T00:18:33;97981.97;;;13.69;100.00
36600;BME280;35385;55.668;37.508;2023-07-20T00:19:33;97979.28;;;13.69;100.00
36600;BME280;35385;55.668;37.508;2023-07-20T00:20:35;97975.56;;;13.70;100.00
36600;BME280;35385;55.668;37.508;2023-07-20T00:21:35;97977.03;;;13.73;100.00
36600;BME280;35385;55.668;37.508;2023-07-20T00:22:35;97978.03;;;13.72;100.00
36600;BME280;35385;55.668;37.508;2023-07-20T00:23:36;97978.88;;;13.72;100.00
36600;BME280;35385;55.668;37.508;2023-07-20T00:24:36;97987.94;;;13.71;100.00
36600;BME280;35385;55.668;37.508;2023-07-20T00:25:37;97985.47;;;13.70;100.00
36600;BME280;35385;55.668;37.508;2023-07-20T00:26:37;97987.31;;;13.69;100.00
36600;BME280;35385;55.668;37.508;2023-07-20T00:27:37;97982.97;;;13.68;100.00
36600;BME280;35385;55.668;37.508;2023-07-20T00:28:38;97990.84;;;13.70;100.00
36600;BME280;35385;55.668;37.508;2023-07-20T00:29:38;97993.72;;;13.68;100.00
36600;BME280;35385;55.668;37.508;2023-07-20T00:30:39;97989.19;;;13.69;100.00
36600;BME280;35385;55.668;37.508;2023-07-20T00:31:40;97990.00;;;13.69;100.00
36600;BME280;35385;55.668;37.508;2023-07-20T00:32:41;97992.88;;;13.68;100.00
36600;BME280;35385;55.668;37.508;2023-07-20T00:33:42;97998.78;;;13.63;100.00
36600;BME280;35385;55.668;37.508;2023-07-20T00:34:42;97988.34;;;13.54;100.00
36600;BME280;35385;55.668;37.508;2023-07-20T00:35:43;97990.84;;;13.55;100.00
36600;BME280;35385;55.668;37.508;2023-07-20T00:36:43;97983.16;;;13.52;100.00
36600;BME280;35385;55.668;37.508;2023-07-20T00:37:44;97979.84;;;13.50;100.00
36600;BME280;35385;55.668;37.508;2023-07-20T00:38:44;97990.94;;;13.47;100.00
36600;BME280;35385;55.668;37.508;2023-07-20T00:39:44;97985.56;;;13.47;100.00
36600;BME280;35385;55.668;37.508;2023-07-20T00:40:45;97988.91;;;13.49;100.00
36600;BME280;35385;55.668;37.508;2023-07-20T00:41:45;97987.69;;;13.52;100.00
36600;BME280;35385;55.668;37.508;2023-07-20T00:42:45;97989.25;;;13.46;100.00
36600;BME280;35385;55.668;37.508;2023-07-20T00:43:46;97986.22;;;13.49;100.00
36600;BME280;35385;55.668;37.508;2023-07-20T00:44:46;97990.38;;;13.52;100.00
36600;BME280;35385;55.668;37.508;2023-07-20T00:45:46;97987.69;;;13.52;100.00
36600;BME280;35385;55.668;37.508;2023-07-20T00:46:47;97998.25;;;13.53;100.00
36600;BME280;35385;55.668;37.508;2023-07-20T00:47:48;97990.38;;;13.52;100.00
36600;BME280;35385;55.668;37.508;2023-07-20T00:48:48;97991.28;;;13.44;100.00
36600;BME280;35385;55.668;37.508;2023-07-20T00:49:48;97992.31;;;13.43;100.00
36600;BME280;35385;55.668;37.508;2023-07-20T00:50:50;97985.94;;;13.44;100.00
36600;BME280;35385;55.668;37.508;2023-07-20T00:51:51;97994.97;;;13.43;100.00
36600;BME280;35385;55.668;37.508;2023-07-20T00:52:51;97989.63;;;13.43;100.00
36600;BME280;35385;55.668;37.508;2023-07-20T00:53:52;97995.38;;;13.40;100.00
36600;BME280;35385;55.668;37.508;2023-07-20T00:54:53;98000.91;;;13.38;100.00
36600;BME280;35385;55.668;37.508;2023-07-20T00:55:56;97994.72;;;13.38;100.00
36600;BME280;35385;55.668;37.508;2023-07-20T00:56:56;97995.75;;;13.37;100.00
36600;BME280;35385;55.668;37.508;2023-07-20T00:57:58;97997.22;;;13.39;100.00
36600;BME280;35385;55.668;37.508;2023-07-20T00:58:59;97994.53;;;13.39;100.00
36600;BME280;35385;55.668;37.508;2023-07-20T00:59:59;97996.75;;;13.36;100.00
36600;BME280;35385;55.668;37.508;2023-07-20T01:01:00;97993.44;;;13.34;100.00
36600;BME280;35385;55.668;37.508;2023-07-20T01:02:00;98000.63;;;13.33;100.00
36600;BME280;35385;55.668;37.508;2023-07-20T01:03:01;97999.78;;;13.33;100.00
36600;BME280;35385;55.668;37.508;2023-07-20T01:04:01;97999.78;;;13.33;100.00
36600;BME280;35385;55.668;37.508;2023-07-20T01:05:01;98001.47;;;13.34;100.00
36600;BME280;35385;55.668;37.508;2023-07-20T01:06:14;98009.69;;;13.32;100.00
36600;BME280;35385;55.668;37.508;2023-07-20T01:07:24;97995.81;;;13.29;100.00
36600;BME280;35385;55.668;37.508;2023-07-20T01:09:45;98003.03;;;13.28;100.00
36600;BME280;35385;55.668;37.508;2023-07-20T01:10:53;98000.16;;;13.30;100.00
36600;BME280;35385;55.668;37.508;2023-07-20T01:11:59;97996.81;;;13.28;100.00
36600;BME280;35385;55.668;37.508;2023-07-20T01:13:03;97996.81;;;13.28;100.00
36600;BME280;35385;55.668;37.508;2023-07-20T01:14:06;97997.66;;;13.28;100.00
36600;BME280;35385;55.668;37.508;2023-07-20T01:15:07;97999.31;;;13.29;100.00
36600;BME280;35385;55.668;37.508;2023-07-20T01:16:08;97991.09;;;13.31;100.00
36600;BME280;35385;55.668;37.508;2023-07-20T01:17:09;98003.31;;;13.33;100.00
36600;BME280;35385;55.668;37.508;2023-07-20T01:18:09;98001.47;;;13.34;100.00
36600;BME280;35385;55.668;37.508;2023-07-20T01:19:10;97999.63;;;13.34;100.00
36600;BME280;35385;55.668;37.508;2023-07-20T01:20:12;97998.13;;;13.32;100.00
36600;BME280;35385;55.668;37.508;2023-07-20T01:21:16;97999.97;;;13.31;100.00
36600;BME280;35385;55.668;37.508;2023-07-20T01:27:08;97997.78;;;13.35;100.00
36600;BME280;35385;55.668;37.508;2023-07-20T01:28:22;98000.91;;;13.38;100.00
36600;BME280;35385;55.668;37.508;2023-07-20T01:30:46;97996.81;;;13.28;100.00
36600;BME280;35385;55.668;37.508;2023-07-20T01:31:50;98008.38;;;13.28;100.00
36600;BME280;35385;55.668;37.508;2023-07-20T01:32:52;98006.72;;;13.27;100.00
36600;BME280;35385;55.668;37.508;2023-07-20T01:33:55;98003.84;;;13.29;100.00
36600;BME280;35385;55.668;37.508;2023-07-20T01:34:56;98010.88;;;13.30;100.00
36600;BME280;35385;55.668;37.508;2023-07-20T01:35:58;98009.69;;;13.32;100.00
36600;BME280;35385;55.668;37.508;2023-07-20T01:37:00;98006.81;;;13.34;100.00
36600;BME280;35385;55.668;37.508;2023-07-20T01:38:01;98003.97;;;13.35;100.00
36600;BME280;35385;55.668;37.508;2023-07-20T01:39:01;98013.22;;;13.33;100.00
36600;BME280;35385;55.668;37.508;2023-07-20T01:40:02;98011.91;;;13.29;100.00
36600;BME280;35385;55.668;37.508;2023-07-20T01:41:03;98009.41;;;13.27;100.00
36600;BME280;35385;55.668;37.508;2023-07-20T01:42:04;98004.25;;;13.26;100.00
36600;BME280;35385;55.668;37.508;2023-07-20T01:43:04;98003.41;;;13.25;100.00
36600;BME280;35385;55.668;37.508;2023-07-20T01:44:05;97998.88;;;13.26;100.00
36600;BME280;35385;55.668;37.508;2023-07-20T01:45:05;98002.75;;;13.23;100.00
36600;BME280;35385;55.668;37.508;2023-07-20T01:46:06;98002.28;;;13.20;100.00
36600;BME280;35385;55.668;37.508;2023-07-20T01:47:06;97997.94;;;13.19;100.00
36600;BME280;35385;55.668;37.508;2023-07-20T01:48:07;98002.09;;;13.21;100.00
36600;BME280;35385;55.668;37.508;2023-07-20T01:49:07;98009.03;;;13.16;100.00
36600;BME280;35385;55.668;37.508;2023-07-20T01:50:08;98003.66;;;13.16;100.00
36600;BME280;35385;55.668;37.508;2023-07-20T01:51:08;97999.59;;;13.20;100.00
36600;BME280;35385;55.668;37.508;2023-07-20T01:52:09;98005.63;;;13.22;100.00
36600;BME280;35385;55.668;37.508;2023-07-20T01:53:09;98002.94;;;13.22;100.00
36600;BME280;35385;55.668;37.508;2023-07-20T01:54:10;98006.09;;;13.25;100.00
36600;BME280;35385;55.668;37.508;2023-07-20T01:55:10;98004.59;;;13.23;100.00
36600;BME280;35385;55.668;37.508;2023-07-20T01:56:10;98010.16;;;13.21;100.00
36600;BME280;35385;55.668;37.508;2023-07-20T01:57:12;98011.84;;;13.14;100.00
36600;BME280;35385;55.668;37.508;2023-07-20T01:58:12;98008.72;;;13.10;100.00
36600;BME280;35385;55.668;37.508;2023-07-20T01:59:13;98005.22;;;13.10;100.00
36600;BME280;35385;55.668;37.508;2023-07-20T02:00:13;98007.72;;;13.12;100.00
36600;BME280;35385;55.668;37.508;2023-07-20T02:01:14;98005.22;;;13.10;100.00
36600;BME280;35385;55.668;37.508;2023-07-20T02:02:14;98008.53;;;13.12;100.00
36600;BME280;35385;55.668;37.508;2023-07-20T02:03:14;98007.34;;;13.15;100.00
36600;BME280;35385;55.668;37.508;2023-07-20T02:04:15;98015.22;;;13.16;100.00
36600;BME280;35385;55.668;37.508;2023-07-20T02:05:15;98017.72;;;13.18;100.00
36600;BME280;35385;55.668;37.508;2023-07-20T02:06:16;98012.00;;;13.21;100.00
36600;BME280;35385;55.668;37.508;2023-07-20T02:07:16;98009.13;;;13.22;100.00
36600;BME280;35385;55.668;37.508;2023-07-20T02:08:17;98018.66;;;13.25;100.00
36600;BME280;35385;55.668;37.508;2023-07-20T02:09:18;98015.34;;;13.23;100.00
36600;BME280;35385;55.668;37.508;2023-07-20T02:10:18;98014.03;;;13.19;100.00
36600;BME280;35385;55.668;37.508;2023-07-20T02:11:19;98015.03;;;13.18;100.00
36600;BME280;35385;55.668;37.508;2023-07-20T02:12:19;98008.66;;;13.19;100.00
36600;BME280;35385;55.668;37.508;2023-07-20T02:13:19;98014.69;;;13.21;100.00
36600;BME280;35385;55.668;37.508;2023-07-20T02:14:20;98009.69;;;13.18;100.00
36600;BME280;35385;55.668;37.508;2023-07-20T02:15:22;98005.50;;;13.15;100.00
36600;BME280;35385;55.668;37.508;2023-07-20T02:16:22;98019.63;;;13.09;100.00
36600;BME280;35385;55.668;37.508;2023-07-20T02:17:23;98015.28;;;13.08;100.00
36600;BME280;35385;55.668;37.508;2023-07-20T02:18:43;98014.25;;;13.09;100.00
36600;BME280;35385;55.668;37.508;2023-07-20T02:19:43;98013.78;;;13.05;100.00
36600;BME280;35385;55.668;37.508;2023-07-20T02:20:44;98016.47;;;13.05;100.00
36600;BME280;35385;55.668;37.508;2023-07-20T02:21:45;98017.13;;;13.07;100.00
36600;BME280;35385;55.668;37.508;2023-07-20T02:22:45;98022.34;;;13.01;100.00
36600;BME280;35385;55.668;37.508;2023-07-20T02:23:45;98015.81;;;13.03;100.00
36600;BME280;35385;55.668;37.508;2023-07-20T02:24:46;98026.72;;;13.02;100.00
36600;BME280;35385;55.668;37.508;2023-07-20T02:25:46;98023.38;;;13.00;100.00
36600;BME280;35385;55.668;37.508;2023-07-20T02:26:47;98020.34;;;13.03;100.00
36600;BME280;35385;55.668;37.508;2023-07-20T02:27:47;97998.16;;;12.94;100.00
36600;BME280;35385;55.668;37.508;2023-07-20T02:28:47;98020.47;;;13.09;100.00
36600;BME280;35385;55.668;37.508;2023-07-20T02:29:48;98016.47;;;13.05;100.00
36600;BME280;35385;55.668;37.508;2023-07-20T02:30:48;98016.66;;;13.04;100.00
36600;BME280;35385;55.668;37.508;2023-07-20T02:31:50;98015.81;;;13.03;100.00
36600;BME280;35385;55.668;37.508;2023-07-20T02:32:50;98014.44;;;13.07;100.00
36600;BME280;35385;55.668;37.508;2023-07-20T02:33:50;98019.16;;;13.05;100.00
36600;BME280;35385;55.668;37.508;2023-07-20T02:34:51;98020.34;;;13.03;100.00
36600;BME280;35385;55.668;37.508;2023-07-20T02:35:51;98022.00;;;13.04;100.00
36600;BME280;35385;55.668;37.508;2023-07-20T02:36:52;98016.66;;;13.04;100.00
36600;BME280;35385;55.668;37.508;2023-07-20T02:37:52;98016.47;;;13.05;100.00
36600;BME280;35385;55.668;37.508;2023-07-20T02:38:52;98016.75;;;13.10;100.00
36600;BME280;35385;55.668;37.508;2023-07-20T02:39:53;98026.25;;;13.13;100.00
36600;BME280;35385;55.668;37.508;2023-07-20T02:40:54;98027.59;;;13.17;100.00
36600;BME280;35385;55.668;37.508;2023-07-20T02:41:54;98014.19;;;13.17;100.00
36600;BME280;35385;55.668;37.508;2023-07-20T02:42:55;98028.44;;;13.18;100.00
36600;BME280;35385;55.668;37.508;2023-07-20T02:43:55;98026.78;;;13.17;100.00
36600;BME280;35385;55.668;37.508;2023-07-20T02:44:56;98027.06;;;13.22;100.00
36600;BME280;35385;55.668;37.508;2023-07-20T02:45:57;98021.16;;;13.26;100.00
36600;BME280;35385;55.668;37.508;2023-07-20T02:46:57;98017.09;;;13.30;100.00
36600;BME280;35385;55.668;37.508;2023-07-20T02:47:57;98018.66;;;13.25;100.00
36600;BME280;35385;55.668;37.508;2023-07-20T02:48:58;98019.50;;;13.25;100.00
36600;BME280;35385;55.668;37.508;2023-07-20T02:49:58;98019.31;;;13.27;100.00
36600;BME280;35385;55.668;37.508;2023-07-20T02:50:59;98022.81;;;13.27;100.00
36600;BME280;35385;55.668;37.508;2023-07-20T02:51:59;98025.31;;;13.29;100.00
36600;BME280;35385;55.668;37.508;2023-07-20T02:52:59;98028.09;;;13.35;100.00
36600;BME280;35385;55.668;37.508;2023-07-20T02:54:00;98023.66;;;13.42;100.00
36600;BME280;35385;55.668;37.508;2023-07-20T02:55:01;98023.59;;;13.51;100.00
36600;BME280;35385;55.668;37.508;2023-07-20T02:56:01;98032.19;;;13.61;100.00
36600;BME280;35385;55.668;37.508;2023-07-20T02:57:02;98027.28;;;13.64;100.00
36600;BME280;35385;55.668;37.508;2023-07-20T02:58:02;98027.09;;;13.66;100.00
36600;BME280;35385;55.668;37.508;2023-07-20T02:59:03;98029.25;;;13.70;100.00
36600;BME280;35385;55.668;37.508;2023-07-20T03:00:03;98030.88;;;13.71;100.00
36600;BME280;35385;55.668;37.508;2023-07-20T03:01:06;98035.50;;;13.77;100.00
36600;BME280;35385;55.668;37.508;2023-07-20T03:02:07;98031.81;;;13.78;100.00
36600;BME280;35385;55.668;37.508;2023-07-20T03:03:09;98027.75;;;13.83;100.00
36600;BME280;35385;55.668;37.508;2023-07-20T03:04:10;98026.50;;;13.85;100.00
36600;BME280;35385;55.668;37.508;2023-07-20T03:05:10;98031.69;;;13.87;100.00
36600;BME280;35385;55.668;37.508;2023-07-20T03:06:11;98027.34;;;13.86;100.00
36600;BME280;35385;55.668;37.508;2023-07-20T03:07:11;98032.72;;;13.86;100.00
36600;BME280;35385;55.668;37.508;2023-07-20T03:08:12;98032.34;;;13.89;100.00
36600;BME280;35385;55.668;37.508;2023-07-20T03:09:12;98038.66;;;13.96;100.00
36600;BME280;35385;55.668;37.508;2023-07-20T03:10:12;98038.47;;;13.97;100.00
36600;BME280;35385;55.668;37.508;2023-07-20T03:11:13;98031.25;;;13.98;100.00
36600;BME280;35385;55.668;37.508;2023-07-20T03:12:15;98030.13;;;13.92;100.00
36600;BME280;35385;55.668;37.508;2023-07-20T03:13:15;98029.94;;;13.94;100.00
36600;BME280;35385;55.668;37.508;2023-07-20T03:14:16;98033.75;;;13.99;100.00
36600;BME280;35385;55.668;37.508;2023-07-20T03:15:16;98020.50;;;13.98;100.00
36600;BME280;35385;55.668;37.508;2023-07-20T03:16:17;98040.31;;;13.97;100.00
36600;BME280;35385;55.668;37.508;2023-07-20T03:17:18;98022.81;;;13.86;100.00
36600;BME280;35385;55.668;37.508;2023-07-20T03:18:20;98028.19;;;13.86;100.00
36600;BME280;35385;55.668;37.508;2023-07-20T03:19:21;98031.31;;;13.90;100.00
36600;BME280;35385;55.668;37.508;2023-07-20T03:20:21;98034.47;;;13.93;100.00
36600;BME280;35385;55.668;37.508;2023-07-20T03:21:21;98034.53;;;14.00;100.00
36600;BME280;35385;55.668;37.508;2023-07-20T03:22:22;98034.28;;;14.09;100.00
36600;BME280;35385;55.668;37.508;2023-07-20T03:23:24;98039.72;;;14.16;100.00
36600;BME280;35385;55.668;37.508;2023-07-20T03:24:26;98029.88;;;14.23;100.00
36600;BME280;35385;55.668;37.508;2023-07-20T03:25:26;98033.78;;;14.21;100.00
36600;BME280;35385;55.668;37.508;2023-07-20T03:26:27;98030.75;;;14.09;100.00
36600;BME280;35385;55.668;37.508;2023-07-20T03:27:27;98034.28;;;14.09;100.00
36600;BME280;35385;55.668;37.508;2023-07-20T03:28:29;98037.13;;;14.08;100.00
36600;BME280;35385;55.668;37.508;2023-07-20T03:29:31;98039.63;;;14.09;100.00
36600;BME280;35385;55.668;37.508;2023-07-20T03:30:32;98037.59;;;14.11;100.00
36600;BME280;35385;55.668;37.508;2023-07-20T03:31:32;98037.03;;;14.16;100.00
36600;BME280;35385;55.668;37.508;2023-07-20T03:32:33;98039.34;;;14.19;100.00
36600;BME280;35385;55.668;37.508;2023-07-20T03:33:33;98048.03;;;14.21;100.00
36600;BME280;35385;55.668;37.508;2023-07-20T03:34:34;98045.16;;;14.23;100.00
36600;BME280;35385;55.668;37.508;2023-07-20T03:35:34;98041.72;;;14.29;100.00
36600;BME280;35385;55.668;37.508;2023-07-20T03:36:34;98037.06;;;14.37;100.00
36600;BME280;35385;55.668;37.508;2023-07-20T03:37:35;98041.31;;;14.46;100.00
36600;BME280;35385;55.668;37.508;2023-07-20T03:38:36;98044.16;;;14.60;100.00
36600;BME280;35385;55.668;37.508;2023-07-20T03:39:36;98038.22;;;14.64;100.00
36600;BME280;35385;55.668;37.508;2023-07-20T03:40:37;98036.16;;;14.66;100.00
36600;BME280;35385;55.668;37.508;2023-07-20T03:41:37;98039.75;;;14.73;100.00
36600;BME280;35385;55.668;37.508;2023-07-20T03:42:37;98034.13;;;14.68;100.00
36600;BME280;35385;55.668;37.508;2023-07-20T03:43:38;98036.22;;;14.73;100.00
36600;BME280;35385;55.668;37.508;2023-07-20T03:44:39;98043.00;;;14.90;100.00
36600;BME280;35385;55.668;37.508;2023-07-20T03:45:39;98040.38;;;14.97;100.00
36600;BME280;35385;55.668;37.508;2023-07-20T03:46:39;98041.41;;;14.96;100.00
36600;BME280;35385;55.668;37.508;2023-07-20T03:47:40;98038.53;;;14.97;100.00
36600;BME280;35385;55.668;37.508;2023-07-20T03:48:40;98036.06;;;15.02;100.00
36600;BME280;35385;55.668;37.508;2023-07-20T03:49:40;98034.03;;;15.04;100.00
36600;BME280;35385;55.668;37.508;2023-07-20T03:50:43;98035.56;;;15.13;100.00
36600;BME280;35385;55.668;37.508;2023-07-20T03:51:44;98034.22;;;15.31;100.00
36600;BME280;35385;55.668;37.508;2023-07-20T03:52:44;98041.38;;;15.45;100.00
36600;BME280;35385;55.668;37.508;2023-07-20T03:53:44;98033.06;;;15.40;100.00
36600;BME280;35385;55.668;37.508;2023-07-20T03:54:45;98045.88;;;15.38;100.00
36600;BME280;35385;55.668;37.508;2023-07-20T03:55:49;98038.00;;;15.08;100.00
36600;BME280;35385;55.668;37.508;2023-07-20T03:56:50;98039.03;;;15.07;100.00
36600;BME280;35385;55.668;37.508;2023-07-20T03:57:50;98033.66;;;15.07;100.00
36600;BME280;35385;55.668;37.508;2023-07-20T03:58:51;98031.53;;;15.03;100.00
36600;BME280;35385;55.668;37.508;2023-07-20T03:59:51;98039.31;;;15.19;100.00
36600;BME280;35385;55.668;37.508;2023-07-20T04:00:51;98041.69;;;15.29;100.00
36600;BME280;35385;55.668;37.508;2023-07-20T04:01:52;98043.03;;;15.46;100.00
36600;BME280;35385;55.668;37.508;2023-07-20T04:02:52;98044.81;;;15.60;100.00
36600;BME280;35385;55.668;37.508;2023-07-20T04:03:52;98048.16;;;15.62;100.00
36600;BME280;35385;55.668;37.508;2023-07-20T04:04:53;98049.03;;;15.41;100.00
36600;BME280;35385;55.668;37.508;2023-07-20T04:05:54;98047.38;;;15.40;100.00
36600;BME280;35385;55.668;37.508;2023-07-20T04:06:55;98050.88;;;15.41;100.00
36600;BME280;35385;55.668;37.508;2023-07-20T04:07:55;98045.78;;;15.25;100.00
36600;BME280;35385;55.668;37.508;2023-07-20T04:08:56;98043.97;;;15.32;100.00
36600;BME280;35385;55.668;37.508;2023-07-20T04:09:56;98047.59;;;15.45;100.00
36600;BME280;35385;55.668;37.508;2023-07-20T04:10:56;98047.66;;;15.52;100.00
36600;BME280;35385;55.668;37.508;2023-07-20T04:11:57;98042.81;;;15.41;100.00
36600;BME280;35385;55.668;37.508;2023-07-20T04:12:57;98039.50;;;15.45;100.00
36600;BME280;35385;55.668;37.508;2023-07-20T04:13:58;98051.28;;;15.66;100.00
36600;BME280;35385;55.668;37.508;2023-07-20T04:14:58;98046.47;;;15.61;100.00
36600;BME280;35385;55.668;37.508;2023-07-20T04:15:58;98054.69;;;15.53;100.00
36600;BME280;35385;55.668;37.508;2023-07-20T04:16:59;98051.22;;;15.59;100.00
36600;BME280;35385;55.668;37.508;2023-07-20T04:18:00;98049.25;;;15.74;100.00
36600;BME280;35385;55.668;37.508;2023-07-20T04:19:01;98041.56;;;16.06;100.00
36600;BME280;35385;55.668;37.508;2023-07-20T04:20:01;98052.63;;;16.31;100.00
36600;BME280;35385;55.668;37.508;2023-07-20T04:21:02;98042.75;;;16.44;100.00
36600;BME280;35385;55.668;37.508;2023-07-20T04:22:03;98038.16;;;16.45;100.00
36600;BME280;35385;55.668;37.508;2023-07-20T04:23:03;98045.22;;;16.46;100.00
36600;BME280;35385;55.668;37.508;2023-07-20T04:24:04;98050.75;;;16.24;100.00
36600;BME280;35385;55.668;37.508;2023-07-20T04:25:04;98046.75;;;16.07;100.00
36600;BME280;35385;55.668;37.508;2023-07-20T04:26:05;98043.81;;;16.02;100.00
36600;BME280;35385;55.668;37.508;2023-07-20T04:27:06;98045.91;;;16.00;100.00
36600;BME280;35385;55.668;37.508;2023-07-20T04:28:07;98049.81;;;16.04;100.00
36600;BME280;35385;55.668;37.508;2023-07-20T04:29:10;98046.78;;;16.20;100.00
36600;BME280;35385;55.668;37.508;2023-07-20T04:30:11;98048.44;;;16.15;100.00
36600;BME280;35385;55.668;37.508;2023-07-20T04:31:12;98043.06;;;16.21;100.00
36600;BME280;35385;55.668;37.508;2023-07-20T04:32:13;98049.38;;;16.42;100.00
36600;BME280;35385;55.668;37.508;2023-07-20T04:33:13;98047.50;;;16.42;100.00
36600;BME280;35385;55.668;37.508;2023-07-20T04:34:14;98046.09;;;16.59;100.00
36600;BME280;35385;55.668;37.508;2023-07-20T04:36:33;98052.09;;;16.61;100.00
36600;BME280;35385;55.668;37.508;2023-07-20T04:37:34;98051.09;;;16.63;100.00
36600;BME280;35385;55.668;37.508;2023-07-20T04:38:34;98055.16;;;16.39;100.00
36600;BME280;35385;55.668;37.508;2023-07-20T04:39:34;98049.13;;;16.30;100.00
36600;BME280;35385;55.668;37.508;2023-07-20T04:40:35;98055.34;;;16.37;100.00
36600;BME280;35385;55.668;37.508;2023-07-20T04:41:35;98047.88;;;16.26;100.00
36600;BME280;35385;55.668;37.508;2023-07-20T04:42:35;98056.38;;;16.30;100.00
36600;BME280;35385;55.668;37.508;2023-07-20T04:43:36;98060.19;;;16.07;100.00
36600;BME280;35385;55.668;37.508;2023-07-20T04:44:36;98044.69;;;16.16;100.00
36600;BME280;35385;55.668;37.508;2023-07-20T04:45:37;98049.72;;;16.25;100.00
36600;BME280;35385;55.668;37.508;2023-07-20T04:46:37;98045.41;;;16.38;100.00
36600;BME280;35385;55.668;37.508;2023-07-20T04:47:37;98041.53;;;16.53;100.00
36600;BME280;35385;55.668;37.508;2023-07-20T04:48:38;98047.59;;;16.69;100.00
36600;BME280;35385;55.668;37.508;2023-07-20T04:49:38;98045.56;;;16.84;100.00
36600;BME280;35385;55.668;37.508;2023-07-20T04:50:42;98051.97;;;16.89;100.00
36600;BME280;35385;55.668;37.508;2023-07-20T04:51:43;98052.00;;;16.96;100.00
36600;BME280;35385;55.668;37.508;2023-07-20T04:52:44;98049.91;;;16.72;100.00
36600;BME280;35385;55.668;37.508;2023-07-20T04:53:46;98054.47;;;16.91;100.00
36600;BME280;35385;55.668;37.508;2023-07-20T04:54:47;98053.66;;;17.10;100.00
36600;BME280;35385;55.668;37.508;2023-07-20T04:55:48;98052.41;;;17.06;100.00
36600;BME280;35385;55.668;37.508;2023-07-20T04:56:50;98052.63;;;16.85;100.00
36600;BME280;35385;55.668;37.508;2023-07-20T04:57:51;98045.16;;;16.87;100.00
36600;BME280;35385;55.668;37.508;2023-07-20T04:58:51;98049.91;;;17.05;100.00
36600;BME280;35385;55.668;37.508;2023-07-20T04:59:52;98037.91;;;17.07;100.00
36600;BME280;35385;55.668;37.508;2023-07-20T05:00:52;98041.59;;;17.46;100.00
36600;BME280;35385;55.668;37.508;2023-07-20T05:01:54;98045.34;;;17.58;100.00
36600;BME280;35385;55.668;37.508;2023-07-20T05:02:55;98042.84;;;17.63;100.00
36600;BME280;35385;55.668;37.508;2023-07-20T05:03:55;98046.38;;;17.83;100.00
36600;BME280;35385;55.668;37.508;2023-07-20T05:04:56;98041.13;;;17.95;100.00
36600;BME280;35385;55.668;37.508;2023-07-20T05:05:56;98041.91;;;18.09;100.00
36600;BME280;35385;55.668;37.508;2023-07-20T05:06:57;98044.25;;;17.98;100.00
36600;BME280;35385;55.668;37.508;2023-07-20T05:07:57;98045.13;;;17.79;100.00
36600;BME280;35385;55.668;37.508;2023-07-20T05:08:57;98043.66;;;17.77;100.00
36600;BME280;35385;55.668;37.508;2023-07-20T05:09:58;98053.03;;;17.48;100.00
36600;BME280;35385;55.668;37.508;2023-07-20T05:11:01;98049.09;;;17.63;100.00
36600;BME280;35385;55.668;37.508;2023-07-20T05:12:02;98041.63;;;17.72;100.00
36600;BME280;35385;55.668;37.508;2023-07-20T05:13:02;98047.72;;;18.12;100.00
36600;BME280;35385;55.668;37.508;2023-07-20T05:14:03;98044.00;;;18.07;100.00
36600;BME280;35385;55.668;37.508;2023-07-20T05:15:03;98048.81;;;18.49;100.00
36600;BME280;35385;55.668;37.508;2023-07-20T05:16:04;98044.78;;;18.71;100.00
36600;BME280;35385;55.668;37.508;2023-07-20T05:17:04;98045.84;;;18.64;100.00
36600;BME280;35385;55.668;37.508;2023-07-20T05:18:05;98049.63;;;18.56;100.00
36600;BME280;35385;55.668;37.508;2023-07-20T05:19:05;98044.94;;;18.77;100.00
36600;BME280;35385;55.668;37.508;2023-07-20T05:20:06;98039.16;;;18.73;100.00
36600;BME280;35385;55.668;37.508;2023-07-20T05:21:06;98050.72;;;18.87;100.00
36600;BME280;35385;55.668;37.508;2023-07-20T05:22:08;98039.00;;;18.61;100.00
36600;BME280;35385;55.668;37.508;2023-07-20T05:23:08;98048.41;;;18.01;100.00